createdAt,value
2022-08-29T00:00:23.801Z,2.65
2022-08-29T00:02:55.455Z,2.72
2022-08-29T00:05:26.712Z,2.87
2022-08-29T00:07:55.577Z,2.75
2022-08-29T00:10:24.218Z,2.28
2022-08-29T00:12:53.008Z,2.53
2022-08-29T00:15:23.927Z,2.58
2022-08-29T00:17:52.674Z,2.60
2022-08-29T00:20:30.223Z,2.70
2022-08-29T00:23:03.109Z,2.87
2022-08-29T00:25:32.178Z,3.20
2022-08-29T00:28:01.118Z,2.55
2022-08-29T00:30:32.294Z,2.50
2022-08-29T00:33:01.088Z,2.95
2022-08-29T00:35:32.396Z,2.40
2022-08-29T00:38:01.890Z,2.95
2022-08-29T00:40:32.990Z,3.12
2022-08-29T00:43:02.340Z,2.47
2022-08-29T00:45:33.432Z,2.37
2022-08-29T00:48:05.453Z,2.92
2022-08-29T00:50:38.129Z,2.35
2022-08-29T00:53:10.181Z,2.53
2022-08-29T00:55:40.330Z,2.87
2022-08-29T00:58:13.360Z,2.62
2022-08-29T01:00:47.641Z,2.50
2022-08-29T01:03:16.401Z,2.85
2022-08-29T01:05:46.281Z,2.60
2022-08-29T01:08:15.168Z,2.70
2022-08-29T01:11:01.446Z,2.85
2022-08-29T01:13:35.041Z,2.97
2022-08-29T01:16:06.840Z,2.47
2022-08-29T01:18:38.265Z,3.25
2022-08-29T01:21:14.777Z,2.30
2022-08-29T01:23:47.315Z,2.62
2022-08-29T01:26:17.735Z,2.55
2022-08-29T01:28:49.562Z,3.00
2022-08-29T01:31:37.876Z,2.33
2022-08-29T01:34:11.532Z,2.50
2022-08-29T01:36:43.565Z,2.70
2022-08-29T01:39:12.749Z,2.58
2022-08-29T01:41:43.488Z,2.95
2022-08-29T01:46:41.838Z,2.83
2022-08-29T01:49:11.771Z,2.62
2022-08-29T01:51:41.684Z,2.67
2022-08-29T01:54:12.287Z,2.62
2022-08-29T01:56:44.504Z,2.83
2022-08-29T01:59:16.332Z,2.80
2022-08-29T02:01:48.766Z,2.70
2022-08-29T02:04:17.818Z,2.22
2022-08-29T02:06:46.426Z,2.47
2022-08-29T02:09:17.344Z,2.87
2022-08-29T02:11:48.285Z,2.75
2022-08-29T02:14:19.461Z,2.00
2022-08-29T02:16:49.008Z,2.50
2022-08-29T02:19:19.285Z,2.60
2022-08-29T02:21:48.204Z,3.28
2022-08-29T02:24:26.231Z,2.10
2022-08-29T02:26:57.796Z,2.47
2022-08-29T02:32:08.019Z,2.72
2022-08-29T02:34:37.073Z,2.62
2022-08-29T02:37:07.518Z,2.62
2022-08-29T02:39:36.182Z,2.93
2022-08-29T02:42:06.905Z,2.92
2022-08-29T02:47:04.711Z,2.67
2022-08-29T02:49:33.378Z,2.85
2022-08-29T02:52:06.729Z,2.53
2022-08-29T02:54:35.871Z,2.85
2022-08-29T02:57:07.077Z,3.45
2022-08-29T02:59:35.947Z,3.28
2022-08-29T03:02:05.494Z,3.60
2022-08-29T03:04:36.007Z,2.90
2022-08-29T03:07:05.551Z,2.83
2022-08-29T03:09:34.336Z,3.45
2022-08-29T03:12:02.994Z,3.45
2022-08-29T03:14:33.219Z,3.15
2022-08-29T03:17:01.832Z,3.00
2022-08-29T03:19:30.452Z,3.08
2022-08-29T03:22:00.474Z,2.90
2022-08-29T03:24:29.232Z,3.40
2022-08-29T03:26:58.764Z,3.05
2022-08-29T03:29:28.030Z,2.80
2022-08-29T03:31:58.742Z,3.05
2022-08-29T03:34:27.918Z,3.33
2022-08-29T03:36:56.860Z,3.33
2022-08-29T03:39:25.733Z,3.03
2022-08-29T03:41:54.682Z,3.25
2022-08-29T03:44:24.505Z,3.53
2022-08-29T03:46:53.944Z,3.17
2022-08-29T03:49:24.875Z,3.15
2022-08-29T03:51:53.486Z,2.83
2022-08-29T03:54:22.735Z,3.87
2022-08-29T03:56:51.583Z,3.58
2022-08-29T03:59:21.125Z,3.08
2022-08-29T04:01:50.763Z,3.42
2022-08-29T04:04:34.921Z,3.42
2022-08-29T04:07:06.415Z,3.92
2022-08-29T04:09:35.305Z,3.12
2022-08-29T04:12:04.499Z,2.87
2022-08-29T04:14:33.649Z,3.25
2022-08-29T04:17:04.300Z,3.37
2022-08-29T04:19:33.393Z,3.53
2022-08-29T04:22:02.297Z,3.37
2022-08-29T04:24:32.864Z,3.40
2022-08-29T04:27:01.573Z,3.30
2022-08-29T04:29:30.452Z,2.97
2022-08-29T04:31:59.104Z,3.40
2022-08-29T04:34:27.866Z,2.85
2022-08-29T04:36:56.818Z,3.35
2022-08-29T04:39:27.052Z,3.08
2022-08-29T04:41:57.307Z,3.28
2022-08-29T04:44:25.933Z,3.03
2022-08-29T04:46:54.578Z,3.42
2022-08-29T04:49:23.507Z,2.95
2022-08-29T04:51:53.783Z,3.15
2022-08-29T04:54:22.405Z,2.97
2022-08-29T04:56:51.374Z,2.85
2022-08-29T04:59:27.654Z,3.08
2022-08-29T05:01:57.408Z,3.30
2022-08-29T05:04:26.344Z,3.80
2022-08-29T05:06:54.956Z,3.80
2022-08-29T05:09:23.943Z,3.20
2022-08-29T05:11:52.622Z,3.55
2022-08-29T05:14:21.226Z,2.87
2022-08-29T05:16:51.560Z,3.45
2022-08-29T05:19:20.585Z,2.80
2022-08-29T05:21:50.032Z,3.40
2022-08-29T05:24:19.545Z,2.62
2022-08-29T05:26:48.155Z,3.12
2022-08-29T05:29:16.922Z,3.10
2022-08-29T05:31:46.288Z,3.22
2022-08-29T05:34:34.020Z,3.50
2022-08-29T05:37:05.919Z,3.30
2022-08-29T05:39:35.371Z,2.83
2022-08-29T05:42:05.249Z,3.62
2022-08-29T05:44:35.625Z,3.17
2022-08-29T05:47:05.446Z,2.75
2022-08-29T05:49:36.599Z,3.45
2022-08-29T05:52:06.756Z,2.70
2022-08-29T05:54:38.138Z,3.60
2022-08-29T05:57:07.363Z,3.12
2022-08-29T05:59:36.422Z,2.35
2022-08-29T06:02:06.040Z,3.47
2022-08-29T06:04:36.607Z,2.67
2022-08-29T06:07:05.857Z,3.00
2022-08-29T06:09:35.450Z,3.15
2022-08-29T06:12:05.046Z,3.45
2022-08-29T06:14:33.903Z,2.78
2022-08-29T06:17:02.818Z,2.62
2022-08-29T06:19:35.045Z,2.65
2022-08-29T06:22:09.565Z,2.53
2022-08-29T06:24:40.499Z,2.85
2022-08-29T06:27:14.112Z,2.80
2022-08-29T06:29:43.950Z,3.05
2022-08-29T06:32:12.790Z,2.95
2022-08-29T06:34:41.936Z,2.42
2022-08-29T06:37:12.749Z,3.30
2022-08-29T06:39:41.595Z,2.90
2022-08-29T06:42:10.425Z,2.50
2022-08-29T06:44:44.364Z,2.30
2022-08-29T06:47:13.306Z,2.20
2022-08-29T06:49:42.194Z,2.70
2022-08-29T06:52:13.410Z,2.22
2022-08-29T06:54:42.299Z,2.50
2022-08-29T06:57:13.204Z,2.65
2022-08-29T06:59:42.151Z,2.20
2022-08-29T07:02:10.835Z,2.33
2022-08-29T07:04:39.518Z,2.67
2022-08-29T07:07:08.598Z,1.42
2022-08-29T07:09:41.039Z,2.35
2022-08-29T07:12:09.882Z,2.20
2022-08-29T07:14:38.822Z,2.25
2022-08-29T07:17:07.529Z,2.35
2022-08-29T07:19:36.400Z,2.55
2022-08-29T07:22:08.089Z,3.12
2022-08-29T07:24:38.353Z,2.60
2022-08-29T07:27:07.500Z,2.23
2022-08-29T07:29:36.160Z,2.22
2022-08-29T07:32:05.242Z,2.12
2022-08-29T07:34:34.216Z,1.92
2022-08-29T07:37:05.783Z,1.90
2022-08-29T07:39:35.065Z,1.70
2022-08-29T07:42:05.460Z,1.67
2022-08-29T07:44:34.785Z,1.80
2022-08-29T07:47:03.707Z,2.40
2022-08-29T07:49:40.919Z,2.22
2022-08-29T07:52:10.220Z,1.48
2022-08-29T07:54:38.915Z,1.98
2022-08-29T07:57:08.871Z,1.80
2022-08-29T07:59:38.141Z,1.98
2022-08-29T08:02:06.902Z,1.92
2022-08-29T08:04:35.921Z,1.77
2022-08-29T08:07:05.035Z,1.52
2022-08-29T08:09:42.667Z,1.35
2022-08-29T08:12:12.643Z,1.58
2022-08-29T08:14:41.308Z,1.70
2022-08-29T08:17:10.210Z,1.80
2022-08-29T08:19:39.457Z,1.85
2022-08-29T08:22:08.075Z,2.10
2022-08-29T08:24:37.046Z,1.98
2022-08-29T08:27:06.146Z,1.50
2022-08-29T08:29:36.350Z,1.83
2022-08-29T08:32:05.442Z,1.50
2022-08-29T08:34:35.812Z,1.77
2022-08-29T08:37:08.211Z,1.80
2022-08-29T08:39:37.259Z,1.58
2022-08-29T08:42:13.608Z,1.62
2022-08-29T08:45:06.859Z,1.67
2022-08-29T08:47:40.308Z,1.50
2022-08-29T08:50:13.525Z,1.67
2022-08-29T08:52:47.097Z,1.67
2022-08-29T08:55:25.592Z,1.83
2022-08-29T08:58:02.550Z,1.52
2022-08-29T09:00:38.883Z,1.48
2022-08-29T09:03:18.036Z,1.77
2022-08-29T09:05:58.724Z,1.80
2022-08-29T09:11:01.848Z,2.17
2022-08-29T09:13:38.641Z,2.28
2022-08-29T09:16:16.444Z,2.12
2022-08-29T09:18:53.914Z,2.03
2022-08-29T09:21:42.279Z,1.73
2022-08-29T09:24:15.976Z,1.50
2022-08-29T09:26:44.705Z,2.08
2022-08-29T09:29:14.161Z,1.80
2022-08-29T09:31:44.712Z,1.70
2022-08-29T09:34:15.577Z,2.10
2022-08-29T09:36:47.913Z,1.85
2022-08-29T09:39:21.478Z,1.85
2022-08-29T09:41:52.941Z,1.60
2022-08-29T09:44:25.977Z,1.90
2022-08-29T09:47:14.586Z,1.62
2022-08-29T09:50:03.775Z,2.00
2022-08-29T09:52:32.704Z,2.10
2022-08-29T09:55:19.107Z,1.77
2022-08-29T09:57:51.599Z,1.55
2022-08-29T10:00:26.997Z,1.85
2022-08-29T10:02:59.361Z,1.80
2022-08-29T10:05:36.162Z,1.75
2022-08-29T10:08:06.841Z,2.12
2022-08-29T10:10:36.575Z,1.70
2022-08-29T10:13:10.196Z,2.30
2022-08-29T10:15:50.791Z,1.85
2022-08-29T10:18:34.106Z,1.52
2022-08-29T10:21:17.784Z,2.08
2022-08-29T10:23:56.395Z,2.28
2022-08-29T10:26:33.386Z,1.92
2022-08-29T10:29:09.559Z,1.60
2022-08-29T10:31:41.484Z,1.52
2022-08-29T10:34:22.552Z,1.67
2022-08-29T10:36:55.977Z,1.52
2022-08-29T10:39:34.411Z,1.52
2022-08-29T10:42:07.424Z,1.67
2022-08-29T10:44:44.627Z,1.50
2022-08-29T10:47:30.040Z,1.40
2022-08-29T10:50:12.853Z,1.73
2022-08-29T10:52:54.130Z,1.42
2022-08-29T10:55:32.441Z,1.27
2022-08-29T10:58:04.902Z,1.48
2022-08-29T11:00:40.973Z,1.73
2022-08-29T11:03:15.241Z,1.50
2022-08-29T11:05:48.114Z,1.35
2022-08-29T11:08:22.877Z,1.35
2022-08-29T11:10:53.489Z,1.45
2022-08-29T11:13:26.032Z,1.87
2022-08-29T11:16:02.109Z,1.33
2022-08-29T11:18:35.302Z,1.48
2022-08-29T11:21:29.020Z,1.35
2022-08-29T11:24:03.512Z,1.23
2022-08-29T11:26:42.825Z,0.90
2022-08-29T11:29:17.463Z,1.20
2022-08-29T11:48:47.658Z,1.30
2022-08-29T11:51:35.952Z,1.33
2022-08-29T11:54:54.085Z,1.15
2022-08-29T11:57:48.912Z,1.33
2022-08-29T12:00:51.359Z,1.30
2022-08-29T12:03:56.080Z,1.05
2022-08-29T12:06:53.902Z,0.98
2022-08-29T12:09:32.640Z,0.90
2022-08-29T12:12:36.023Z,1.08
2022-08-29T12:15:46.050Z,1.05
2022-08-29T12:18:45.774Z,1.05
2022-08-29T12:21:45.593Z,1.27
2022-08-29T12:24:38.855Z,1.30
2022-08-29T12:27:23.091Z,1.00
2022-08-29T12:29:53.351Z,0.70
2022-08-29T12:32:40.152Z,1.20
2022-08-29T12:35:42.315Z,1.08
2022-08-29T12:38:28.123Z,1.00
2022-08-29T12:41:07.101Z,1.10
2022-08-29T12:43:39.821Z,0.77
2022-08-29T12:46:14.073Z,0.77
2022-08-29T12:48:56.129Z,0.80
2022-08-29T12:51:39.121Z,1.25
2022-08-29T12:54:11.334Z,0.90
2022-08-29T12:56:43.571Z,0.70
2022-08-29T12:59:18.860Z,0.80
2022-08-29T13:01:49.511Z,0.98
2022-08-29T13:04:21.914Z,1.00
2022-08-29T13:06:56.189Z,0.90
2022-08-29T13:09:28.058Z,1.20
2022-08-29T13:12:11.626Z,0.93
2022-08-29T13:14:52.745Z,1.17
2022-08-29T13:17:23.573Z,0.60
2022-08-29T13:20:30.006Z,1.00
2022-08-29T13:23:20.834Z,0.85
2022-08-29T13:25:54.619Z,0.93
2022-08-29T13:28:29.866Z,0.85
2022-08-29T13:31:22.542Z,1.02
2022-08-29T13:34:22.011Z,0.90
2022-08-29T13:37:10.496Z,0.88
2022-08-29T13:39:47.014Z,0.90
2022-08-29T13:42:23.966Z,1.02
2022-08-29T13:45:05.771Z,0.70
2022-08-29T13:47:43.409Z,0.85
2022-08-29T13:50:15.210Z,0.90
2022-08-29T13:52:44.122Z,1.10
2022-08-29T13:55:12.819Z,1.05
2022-08-29T13:57:44.512Z,1.15
2022-08-29T14:00:14.608Z,0.62
2022-08-29T14:02:45.409Z,0.90
2022-08-29T14:07:45.073Z,0.90
2022-08-29T14:10:16.867Z,1.23
2022-08-29T14:12:48.209Z,0.95
2022-08-29T14:15:18.929Z,0.80
2022-08-29T14:17:48.911Z,0.90
2022-08-29T14:20:19.273Z,1.00
2022-08-29T14:25:19.991Z,0.90
2022-08-29T14:27:50.357Z,1.27
2022-08-29T14:30:20.855Z,1.00
2022-08-29T14:32:50.033Z,0.98
2022-08-29T14:35:26.138Z,0.82
2022-08-29T14:37:57.165Z,0.77
2022-08-29T14:40:26.264Z,0.93
2022-08-29T14:43:00.077Z,0.80
2022-08-29T14:45:30.679Z,1.00
2022-08-29T14:48:00.012Z,1.00
2022-08-29T14:50:28.666Z,1.15
2022-08-29T14:52:57.245Z,0.85
2022-08-29T14:55:26.342Z,1.30
2022-08-29T14:57:55.221Z,0.82
2022-08-29T15:00:28.912Z,1.00
2022-08-29T15:02:57.897Z,0.95
2022-08-29T15:05:26.624Z,1.00
2022-08-29T15:07:55.934Z,0.95
2022-08-29T15:10:25.990Z,0.93
2022-08-29T15:12:54.651Z,1.33
2022-08-29T15:15:29.765Z,1.17
2022-08-29T15:18:01.891Z,0.70
2022-08-29T15:20:36.359Z,1.00
2022-08-29T15:23:08.059Z,1.37
2022-08-29T15:25:36.874Z,1.02
2022-08-29T15:28:06.878Z,1.30
2022-08-29T15:30:37.106Z,0.98
2022-08-29T15:33:05.870Z,1.10
2022-08-29T15:35:34.589Z,1.27
2022-08-29T15:38:03.524Z,0.77
2022-08-29T15:40:32.424Z,1.05
2022-08-29T15:43:01.156Z,1.08
2022-08-29T15:45:30.228Z,1.10
2022-08-29T15:48:01.292Z,1.62
2022-08-29T15:50:30.501Z,1.23
2022-08-29T15:52:59.166Z,0.85
2022-08-29T15:55:27.854Z,0.95
2022-08-29T15:57:56.777Z,1.20
2022-08-29T16:00:29.765Z,1.30
2022-08-29T16:03:03.362Z,1.17
2022-08-29T16:05:33.218Z,0.90
2022-08-29T16:08:04.804Z,1.05
2022-08-29T16:10:34.694Z,0.88
2022-08-29T16:13:04.909Z,1.20
2022-08-29T16:15:35.198Z,1.33
2022-08-29T16:20:34.853Z,1.20
2022-08-29T16:23:04.744Z,1.95
2022-08-29T16:25:34.237Z,1.83
2022-08-29T16:28:03.443Z,1.10
2022-08-29T16:30:35.042Z,1.27
2022-08-29T16:33:12.012Z,2.08
2022-08-29T16:35:40.876Z,1.60
2022-08-29T16:38:09.508Z,1.70
2022-08-29T16:40:38.430Z,1.02
2022-08-29T16:43:07.459Z,1.45
2022-08-29T16:45:36.220Z,1.50
2022-08-29T16:48:15.565Z,1.90
2022-08-29T16:50:47.760Z,1.05
2022-08-29T16:53:16.417Z,1.55
2022-08-29T16:55:45.117Z,1.10
2022-08-29T16:58:31.617Z,1.17
2022-08-29T17:01:00.267Z,0.80
2022-08-29T17:03:29.195Z,1.23
2022-08-29T17:05:59.177Z,1.40
2022-08-29T17:08:27.092Z,1.12
2022-08-29T17:10:55.519Z,1.40
2022-08-29T17:13:23.559Z,1.23
2022-08-29T17:15:51.551Z,1.27
2022-08-29T17:18:20.473Z,1.10
2022-08-29T17:20:49.471Z,1.33
2022-08-29T17:23:19.938Z,1.15
2022-08-29T17:25:48.816Z,1.23
2022-08-29T17:28:18.643Z,1.58
2022-08-29T17:30:48.967Z,0.93
2022-08-29T17:33:18.040Z,0.82
2022-08-29T17:35:47.708Z,1.00
2022-08-29T17:38:16.916Z,0.90
2022-08-29T17:40:49.170Z,1.40
2022-08-29T17:43:20.134Z,1.20
2022-08-29T17:45:49.560Z,1.23
2022-08-29T17:48:19.438Z,1.30
2022-08-29T17:50:48.216Z,1.35
2022-08-29T17:53:21.287Z,1.37
2022-08-29T17:55:51.509Z,1.02
2022-08-29T17:58:21.782Z,1.37
2022-08-29T18:00:51.648Z,1.00
2022-08-29T18:03:20.740Z,1.00
2022-08-29T18:05:49.377Z,1.30
2022-08-29T18:08:18.140Z,1.15
2022-08-29T18:10:47.593Z,1.20
2022-08-29T18:13:21.441Z,1.15
2022-08-29T18:15:52.636Z,0.80
2022-08-29T18:20:51.418Z,1.17
2022-08-29T18:23:20.056Z,0.85
2022-08-29T18:25:48.949Z,1.20
2022-08-29T18:28:19.578Z,1.00
2022-08-29T18:30:48.385Z,1.00
2022-08-29T18:33:17.249Z,1.25
2022-08-29T18:35:46.174Z,1.50
2022-08-29T18:38:17.659Z,1.05
2022-08-29T18:40:47.668Z,1.20
2022-08-29T18:43:23.671Z,1.27
2022-08-29T18:45:52.871Z,1.20
2022-08-29T18:48:21.646Z,1.20
2022-08-29T18:50:50.278Z,1.23
2022-08-29T18:53:20.717Z,1.48
2022-08-29T18:55:52.641Z,1.20
2022-08-29T18:58:24.738Z,1.50
2022-08-29T19:00:54.422Z,1.23
2022-08-29T19:03:23.594Z,1.20
2022-08-29T19:05:53.979Z,1.10
2022-08-29T19:08:25.633Z,1.52
2022-08-29T19:10:55.652Z,1.48
2022-08-29T19:13:26.581Z,1.42
2022-08-29T19:16:00.274Z,1.33
2022-08-29T19:18:29.314Z,0.93
2022-08-29T19:21:02.775Z,1.48
2022-08-29T19:23:32.888Z,1.20
2022-08-29T19:26:01.866Z,22.67
2022-08-29T19:28:32.095Z,15.88
2022-08-29T19:31:02.569Z,7.45
2022-08-29T19:33:32.105Z,5.30
2022-08-29T19:36:01.731Z,4.72
2022-08-29T19:38:31.646Z,3.47
2022-08-29T19:41:00.750Z,2.35
2022-08-29T19:43:32.524Z,1.90
2022-08-29T19:46:02.558Z,1.65
2022-08-29T19:48:31.304Z,2.10
2022-08-29T19:50:59.930Z,2.78
2022-08-29T19:53:28.917Z,1.45
2022-08-29T19:55:57.992Z,1.60
2022-08-29T19:58:31.539Z,1.40
2022-08-29T20:01:07.501Z,1.85
2022-08-29T20:03:39.177Z,1.30
2022-08-29T20:08:37.420Z,1.52
2022-08-29T20:11:06.891Z,1.40
2022-08-29T20:13:36.361Z,1.30
2022-08-29T20:16:12.477Z,1.65
2022-08-29T20:18:41.940Z,1.37
2022-08-29T20:21:11.740Z,1.60
2022-08-29T20:23:41.541Z,1.37
2022-08-29T20:26:19.657Z,1.50
2022-08-29T20:28:49.440Z,1.67
2022-08-29T20:31:20.475Z,1.58
2022-08-29T20:33:49.343Z,1.50
2022-08-29T20:36:38.643Z,1.30
2022-08-29T20:39:08.761Z,1.48
2022-08-29T20:41:38.109Z,1.75
2022-08-29T20:44:09.874Z,1.70
2022-08-29T20:46:41.369Z,1.60
2022-08-29T20:49:10.811Z,1.58
2022-08-29T20:51:41.045Z,1.77
2022-08-29T20:54:09.702Z,1.60
2022-08-29T20:56:38.348Z,1.55
2022-08-29T20:59:07.261Z,1.65
2022-08-29T21:01:36.316Z,1.65
2022-08-29T21:04:24.879Z,1.50
2022-08-29T21:06:55.322Z,1.37
2022-08-29T21:09:24.106Z,1.58
2022-08-29T21:11:53.399Z,1.73
2022-08-29T21:14:23.446Z,1.55
2022-08-29T21:16:52.268Z,1.27
2022-08-29T21:19:23.025Z,1.60
2022-08-29T21:21:52.201Z,1.65
2022-08-29T21:24:21.536Z,1.37
2022-08-29T21:26:50.520Z,2.03
2022-08-29T21:29:22.043Z,1.70
2022-08-29T21:31:52.193Z,1.65
2022-08-29T21:34:23.443Z,1.80
2022-08-29T21:36:52.173Z,1.30
2022-08-29T21:39:28.012Z,1.35
2022-08-29T21:42:02.644Z,1.83
2022-08-29T21:44:32.031Z,1.52
2022-08-29T21:47:01.189Z,1.50
2022-08-29T21:49:31.399Z,1.75
2022-08-29T21:52:01.250Z,2.00
2022-08-29T21:54:29.871Z,1.95
2022-08-29T21:56:58.572Z,1.85
2022-08-29T21:59:28.009Z,1.90
2022-08-29T22:01:57.064Z,2.30
2022-08-29T22:04:28.442Z,1.80
2022-08-29T22:06:59.683Z,2.28
2022-08-29T22:11:57.812Z,1.75
2022-08-29T22:14:47.761Z,1.70
2022-08-29T22:17:16.383Z,1.90
2022-08-29T22:19:45.219Z,1.70
2022-08-29T22:22:16.371Z,1.30
2022-08-29T22:24:46.223Z,1.80
2022-08-29T22:27:14.807Z,1.50
2022-08-29T22:29:43.813Z,1.40
2022-08-29T22:32:13.133Z,1.55
2022-08-29T22:34:42.036Z,1.80
2022-08-29T22:37:10.629Z,2.00
2022-08-29T22:39:41.131Z,1.58
2022-08-29T22:42:10.320Z,1.70
2022-08-29T22:45:02.339Z,1.65
2022-08-29T22:47:28.427Z,1.55
2022-08-29T22:49:57.631Z,2.10
2022-08-29T22:52:26.238Z,1.60
2022-08-29T22:54:56.156Z,1.83
2022-08-29T22:57:25.077Z,2.12
2022-08-29T22:59:53.672Z,1.75
2022-08-29T23:02:22.425Z,1.80
2022-08-29T23:04:52.339Z,2.10
2022-08-29T23:07:21.413Z,2.23
2022-08-29T23:09:50.748Z,1.90
2022-08-29T23:12:22.439Z,1.67
2022-08-29T23:14:51.128Z,2.05
2022-08-29T23:17:21.038Z,2.05
2022-08-29T23:19:49.959Z,1.58
2022-08-29T23:22:19.010Z,1.98
2022-08-29T23:24:57.966Z,1.70
2022-08-29T23:27:29.971Z,1.77
2022-08-29T23:29:59.446Z,1.70
2022-08-29T23:32:28.898Z,1.95
2022-08-29T23:34:57.703Z,1.58
2022-08-29T23:37:26.694Z,2.58
2022-08-29T23:40:03.551Z,1.45
2022-08-29T23:42:35.068Z,1.85
2022-08-29T23:45:03.819Z,1.98
2022-08-29T23:47:32.858Z,1.70
2022-08-29T23:50:03.496Z,2.00
2022-08-29T23:52:32.442Z,1.90
2022-08-29T23:55:01.912Z,2.25
2022-08-29T23:57:30.533Z,2.03
